sensor_id;sensor_type;location;lat;lon;timestamp;P1;durP1;ratioP1;P2;durP2;ratioP2
21480;SDS011;10902;48.158;8.634;2023-05-29T00:02:09;12.98;;;7.53;;
21480;SDS011;10902;48.158;8.634;2023-05-29T00:04:55;11.48;;;7.57;;
21480;SDS011;10902;48.158;8.634;2023-05-29T00:07:41;12.75;;;7.68;;
21480;SDS011;10902;48.158;8.634;2023-05-29T00:10:27;15.52;;;7.93;;
21480;SDS011;10902;48.158;8.634;2023-05-29T00:13:12;15.95;;;7.90;;
21480;SDS011;10902;48.158;8.634;2023-05-29T00:15:58;14.18;;;7.13;;
21480;SDS011;10902;48.158;8.634;2023-05-29T00:18:45;18.70;;;9.00;;
21480;SDS011;10902;48.158;8.634;2023-05-29T00:21:31;14.52;;;7.78;;
21480;SDS011;10902;48.158;8.634;2023-05-29T00:24:17;16.27;;;8.38;;
21480;SDS011;10902;48.158;8.634;2023-05-29T00:27:03;18.17;;;8.35;;
21480;SDS011;10902;48.158;8.634;2023-05-29T00:29:49;11.23;;;7.22;;
21480;SDS011;10902;48.158;8.634;2023-05-29T00:32:34;13.63;;;7.35;;
21480;SDS011;10902;48.158;8.634;2023-05-29T00:35:20;12.10;;;7.40;;
21480;SDS011;10902;48.158;8.634;2023-05-29T00:38:06;15.27;;;8.40;;
21480;SDS011;10902;48.158;8.634;2023-05-29T00:40:52;13.93;;;8.50;;
21480;SDS011;10902;48.158;8.634;2023-05-29T00:43:37;15.68;;;8.18;;
21480;SDS011;10902;48.158;8.634;2023-05-29T00:46:23;14.45;;;9.07;;
21480;SDS011;10902;48.158;8.634;2023-05-29T00:49:09;17.90;;;9.13;;
21480;SDS011;10902;48.158;8.634;2023-05-29T00:51:56;14.15;;;8.32;;
21480;SDS011;10902;48.158;8.634;2023-05-29T00:54:43;15.00;;;7.68;;
21480;SDS011;10902;48.158;8.634;2023-05-29T00:57:30;14.15;;;8.15;;
21480;SDS011;10902;48.158;8.634;2023-05-29T01:00:18;14.57;;;8.43;;
21480;SDS011;10902;48.158;8.634;2023-05-29T01:03:05;14.93;;;8.65;;
21480;SDS011;10902;48.158;8.634;2023-05-29T01:05:52;14.27;;;8.32;;
21480;SDS011;10902;48.158;8.634;2023-05-29T01:08:38;17.05;;;8.82;;
21480;SDS011;10902;48.158;8.634;2023-05-29T01:20:40;12.20;;;7.70;;
21480;SDS011;10902;48.158;8.634;2023-05-29T01:29:34;14.90;;;8.10;;
21480;SDS011;10902;48.158;8.634;2023-05-29T01:32:20;14.02;;;8.40;;
21480;SDS011;10902;48.158;8.634;2023-05-29T01:35:06;14.70;;;8.63;;
21480;SDS011;10902;48.158;8.634;2023-05-29T01:37:52;12.85;;;6.93;;
21480;SDS011;10902;48.158;8.634;2023-05-29T01:40:38;12.07;;;7.03;;
21480;SDS011;10902;48.158;8.634;2023-05-29T01:43:24;13.93;;;7.25;;
21480;SDS011;10902;48.158;8.634;2023-05-29T01:46:10;13.65;;;7.93;;
21480;SDS011;10902;48.158;8.634;2023-05-29T01:48:59;14.60;;;8.35;;
21480;SDS011;10902;48.158;8.634;2023-05-29T01:51:45;16.45;;;8.80;;
21480;SDS011;10902;48.158;8.634;2023-05-29T01:54:31;14.85;;;7.78;;
21480;SDS011;10902;48.158;8.634;2023-05-29T01:57:16;15.23;;;7.95;;
21480;SDS011;10902;48.158;8.634;2023-05-29T02:00:03;17.55;;;8.25;;
21480;SDS011;10902;48.158;8.634;2023-05-29T02:02:54;13.55;;;7.85;;
21480;SDS011;10902;48.158;8.634;2023-05-29T02:05:39;17.42;;;8.25;;
21480;SDS011;10902;48.158;8.634;2023-05-29T02:08:25;15.80;;;8.07;;
21480;SDS011;10902;48.158;8.634;2023-05-29T02:11:11;14.90;;;7.90;;
21480;SDS011;10902;48.158;8.634;2023-05-29T02:13:57;17.70;;;8.32;;
21480;SDS011;10902;48.158;8.634;2023-05-29T02:16:43;20.55;;;9.73;;
21480;SDS011;10902;48.158;8.634;2023-05-29T02:19:29;15.85;;;9.73;;
21480;SDS011;10902;48.158;8.634;2023-05-29T02:22:14;14.95;;;9.23;;
21480;SDS011;10902;48.158;8.634;2023-05-29T02:25:01;16.42;;;9.05;;
21480;SDS011;10902;48.158;8.634;2023-05-29T02:27:46;14.63;;;8.65;;
21480;SDS011;10902;48.158;8.634;2023-05-29T02:30:32;13.85;;;9.40;;
21480;SDS011;10902;48.158;8.634;2023-05-29T02:33:17;17.67;;;9.07;;
21480;SDS011;10902;48.158;8.634;2023-05-29T02:36:03;15.18;;;9.13;;
21480;SDS011;10902;48.158;8.634;2023-05-29T02:38:49;16.35;;;8.98;;
21480;SDS011;10902;48.158;8.634;2023-05-29T02:41:35;23.20;;;10.15;;
21480;SDS011;10902;48.158;8.634;2023-05-29T02:44:20;20.38;;;9.65;;
21480;SDS011;10902;48.158;8.634;2023-05-29T02:47:06;18.52;;;9.57;;
21480;SDS011;10902;48.158;8.634;2023-05-29T02:49:51;18.27;;;10.15;;
21480;SDS011;10902;48.158;8.634;2023-05-29T02:52:37;15.43;;;9.32;;
21480;SDS011;10902;48.158;8.634;2023-05-29T02:55:22;19.08;;;9.82;;
21480;SDS011;10902;48.158;8.634;2023-05-29T02:58:08;15.98;;;9.05;;
21480;SDS011;10902;48.158;8.634;2023-05-29T03:00:54;16.42;;;9.63;;
21480;SDS011;10902;48.158;8.634;2023-05-29T03:03:39;15.65;;;8.57;;
21480;SDS011;10902;48.158;8.634;2023-05-29T03:06:25;16.95;;;9.20;;
21480;SDS011;10902;48.158;8.634;2023-05-29T03:09:10;16.75;;;9.05;;
21480;SDS011;10902;48.158;8.634;2023-05-29T03:11:57;15.70;;;8.90;;
21480;SDS011;10902;48.158;8.634;2023-05-29T03:14:46;20.20;;;10.40;;
21480;SDS011;10902;48.158;8.634;2023-05-29T03:17:31;20.55;;;10.05;;
21480;SDS011;10902;48.158;8.634;2023-05-29T03:20:17;19.88;;;10.57;;
21480;SDS011;10902;48.158;8.634;2023-05-29T03:23:02;23.38;;;10.32;;
21480;SDS011;10902;48.158;8.634;2023-05-29T03:25:48;18.33;;;10.15;;
21480;SDS011;10902;48.158;8.634;2023-05-29T03:28:33;19.50;;;10.10;;
21480;SDS011;10902;48.158;8.634;2023-05-29T03:31:19;16.67;;;9.43;;
21480;SDS011;10902;48.158;8.634;2023-05-29T03:34:05;16.15;;;9.48;;
21480;SDS011;10902;48.158;8.634;2023-05-29T03:36:50;17.73;;;9.95;;
21480;SDS011;10902;48.158;8.634;2023-05-29T03:39:36;19.63;;;10.45;;
21480;SDS011;10902;48.158;8.634;2023-05-29T03:42:22;16.23;;;10.18;;
21480;SDS011;10902;48.158;8.634;2023-05-29T03:45:07;15.98;;;9.48;;
21480;SDS011;10902;48.158;8.634;2023-05-29T03:47:53;16.38;;;9.52;;
21480;SDS011;10902;48.158;8.634;2023-05-29T03:50:39;17.33;;;9.75;;
21480;SDS011;10902;48.158;8.634;2023-05-29T03:53:24;16.80;;;10.07;;
21480;SDS011;10902;48.158;8.634;2023-05-29T03:56:10;15.80;;;10.15;;
21480;SDS011;10902;48.158;8.634;2023-05-29T03:58:56;17.40;;;10.25;;
21480;SDS011;10902;48.158;8.634;2023-05-29T04:01:41;21.83;;;10.88;;
21480;SDS011;10902;48.158;8.634;2023-05-29T04:04:27;17.73;;;9.68;;
21480;SDS011;10902;48.158;8.634;2023-05-29T04:07:12;20.00;;;10.77;;
21480;SDS011;10902;48.158;8.634;2023-05-29T04:09:58;19.65;;;10.93;;
21480;SDS011;10902;48.158;8.634;2023-05-29T04:12:44;18.95;;;10.60;;
21480;SDS011;10902;48.158;8.634;2023-05-29T04:15:29;17.27;;;10.60;;
21480;SDS011;10902;48.158;8.634;2023-05-29T04:18:15;18.15;;;10.63;;
21480;SDS011;10902;48.158;8.634;2023-05-29T04:21:01;19.20;;;10.77;;
21480;SDS011;10902;48.158;8.634;2023-05-29T04:23:46;20.98;;;10.55;;
21480;SDS011;10902;48.158;8.634;2023-05-29T04:26:32;15.38;;;9.68;;
21480;SDS011;10902;48.158;8.634;2023-05-29T04:29:18;18.02;;;9.90;;
21480;SDS011;10902;48.158;8.634;2023-05-29T04:32:04;16.92;;;9.82;;
21480;SDS011;10902;48.158;8.634;2023-05-29T04:34:50;16.45;;;9.55;;
21480;SDS011;10902;48.158;8.634;2023-05-29T04:37:36;16.52;;;9.82;;
21480;SDS011;10902;48.158;8.634;2023-05-29T04:40:24;18.23;;;10.13;;
21480;SDS011;10902;48.158;8.634;2023-05-29T04:43:10;14.82;;;8.75;;
21480;SDS011;10902;48.158;8.634;2023-05-29T04:45:56;15.40;;;9.30;;
21480;SDS011;10902;48.158;8.634;2023-05-29T04:48:42;14.65;;;9.05;;
21480;SDS011;10902;48.158;8.634;2023-05-29T04:51:28;13.63;;;9.10;;
21480;SDS011;10902;48.158;8.634;2023-05-29T04:54:15;16.02;;;9.57;;
21480;SDS011;10902;48.158;8.634;2023-05-29T04:57:01;15.68;;;9.20;;
21480;SDS011;10902;48.158;8.634;2023-05-29T04:59:47;16.95;;;8.90;;
21480;SDS011;10902;48.158;8.634;2023-05-29T05:02:33;14.57;;;8.75;;
21480;SDS011;10902;48.158;8.634;2023-05-29T05:05:18;12.38;;;8.00;;
21480;SDS011;10902;48.158;8.634;2023-05-29T05:08:04;14.45;;;9.13;;
21480;SDS011;10902;48.158;8.634;2023-05-29T05:10:50;13.13;;;8.23;;
21480;SDS011;10902;48.158;8.634;2023-05-29T05:13:36;17.63;;;8.68;;
21480;SDS011;10902;48.158;8.634;2023-05-29T05:16:21;15.40;;;8.30;;
21480;SDS011;10902;48.158;8.634;2023-05-29T05:19:07;14.77;;;8.43;;
21480;SDS011;10902;48.158;8.634;2023-05-29T05:21:52;13.80;;;8.15;;
21480;SDS011;10902;48.158;8.634;2023-05-29T05:24:38;12.82;;;7.13;;
21480;SDS011;10902;48.158;8.634;2023-05-29T05:27:24;14.40;;;8.30;;
21480;SDS011;10902;48.158;8.634;2023-05-29T05:30:09;15.38;;;8.43;;
21480;SDS011;10902;48.158;8.634;2023-05-29T05:32:55;11.98;;;7.90;;
21480;SDS011;10902;48.158;8.634;2023-05-29T05:35:41;14.05;;;8.20;;
21480;SDS011;10902;48.158;8.634;2023-05-29T05:38:27;12.23;;;7.93;;
21480;SDS011;10902;48.158;8.634;2023-05-29T05:41:12;17.45;;;8.60;;
21480;SDS011;10902;48.158;8.634;2023-05-29T05:43:58;13.32;;;8.02;;
21480;SDS011;10902;48.158;8.634;2023-05-29T05:46:43;13.18;;;8.02;;
21480;SDS011;10902;48.158;8.634;2023-05-29T05:49:30;14.30;;;8.30;;
21480;SDS011;10902;48.158;8.634;2023-05-29T05:52:15;13.75;;;8.23;;
21480;SDS011;10902;48.158;8.634;2023-05-29T05:55:01;12.90;;;8.15;;
21480;SDS011;10902;48.158;8.634;2023-05-29T05:57:48;11.15;;;7.57;;
21480;SDS011;10902;48.158;8.634;2023-05-29T06:00:33;12.88;;;8.40;;
21480;SDS011;10902;48.158;8.634;2023-05-29T06:03:19;13.48;;;8.73;;
21480;SDS011;10902;48.158;8.634;2023-05-29T06:06:05;13.75;;;7.78;;
21480;SDS011;10902;48.158;8.634;2023-05-29T06:08:52;13.13;;;7.32;;
21480;SDS011;10902;48.158;8.634;2023-05-29T06:11:37;12.48;;;7.88;;
21480;SDS011;10902;48.158;8.634;2023-05-29T06:14:23;16.08;;;8.27;;
21480;SDS011;10902;48.158;8.634;2023-05-29T06:17:09;11.82;;;7.50;;
21480;SDS011;10902;48.158;8.634;2023-05-29T06:19:55;13.93;;;7.90;;
21480;SDS011;10902;48.158;8.634;2023-05-29T06:22:41;15.05;;;7.82;;
21480;SDS011;10902;48.158;8.634;2023-05-29T06:25:27;15.00;;;7.38;;
21480;SDS011;10902;48.158;8.634;2023-05-29T06:28:17;13.13;;;7.10;;
21480;SDS011;10902;48.158;8.634;2023-05-29T06:31:03;12.75;;;7.28;;
21480;SDS011;10902;48.158;8.634;2023-05-29T06:33:49;11.38;;;7.38;;
21480;SDS011;10902;48.158;8.634;2023-05-29T06:36:35;13.23;;;7.65;;
21480;SDS011;10902;48.158;8.634;2023-05-29T06:39:21;13.27;;;7.40;;
21480;SDS011;10902;48.158;8.634;2023-05-29T06:42:06;13.13;;;6.60;;
21480;SDS011;10902;48.158;8.634;2023-05-29T06:44:52;10.70;;;6.70;;
21480;SDS011;10902;48.158;8.634;2023-05-29T06:47:38;10.88;;;6.63;;
21480;SDS011;10902;48.158;8.634;2023-05-29T06:50:25;11.85;;;7.05;;
21480;SDS011;10902;48.158;8.634;2023-05-29T06:53:10;12.70;;;6.80;;
21480;SDS011;10902;48.158;8.634;2023-05-29T06:55:56;12.18;;;6.82;;
21480;SDS011;10902;48.158;8.634;2023-05-29T06:58:41;14.90;;;7.28;;
21480;SDS011;10902;48.158;8.634;2023-05-29T07:01:27;11.85;;;7.32;;
21480;SDS011;10902;48.158;8.634;2023-05-29T07:04:12;11.27;;;6.32;;
21480;SDS011;10902;48.158;8.634;2023-05-29T07:06:58;13.05;;;6.63;;
21480;SDS011;10902;48.158;8.634;2023-05-29T07:09:44;10.40;;;6.18;;
21480;SDS011;10902;48.158;8.634;2023-05-29T07:12:29;11.13;;;6.00;;
21480;SDS011;10902;48.158;8.634;2023-05-29T07:15:15;10.65;;;6.40;;
21480;SDS011;10902;48.158;8.634;2023-05-29T07:18:00;11.43;;;6.65;;
21480;SDS011;10902;48.158;8.634;2023-05-29T07:20:46;8.88;;;5.85;;
21480;SDS011;10902;48.158;8.634;2023-05-29T07:23:31;12.50;;;5.80;;
21480;SDS011;10902;48.158;8.634;2023-05-29T07:26:17;10.32;;;6.03;;
21480;SDS011;10902;48.158;8.634;2023-05-29T07:29:03;12.75;;;6.53;;
21480;SDS011;10902;48.158;8.634;2023-05-29T07:31:49;12.70;;;5.88;;
21480;SDS011;10902;48.158;8.634;2023-05-29T07:34:35;11.15;;;5.85;;
21480;SDS011;10902;48.158;8.634;2023-05-29T07:37:21;10.57;;;5.63;;
21480;SDS011;10902;48.158;8.634;2023-05-29T07:40:06;10.68;;;5.80;;
21480;SDS011;10902;48.158;8.634;2023-05-29T07:42:52;9.38;;;5.28;;
21480;SDS011;10902;48.158;8.634;2023-05-29T07:45:38;10.73;;;5.28;;
21480;SDS011;10902;48.158;8.634;2023-05-29T07:48:23;10.60;;;5.10;;
21480;SDS011;10902;48.158;8.634;2023-05-29T07:51:09;10.80;;;5.40;;
21480;SDS011;10902;48.158;8.634;2023-05-29T07:53:55;9.75;;;5.63;;
21480;SDS011;10902;48.158;8.634;2023-05-29T07:56:40;8.98;;;4.80;;
21480;SDS011;10902;48.158;8.634;2023-05-29T07:59:28;9.68;;;5.03;;
21480;SDS011;10902;48.158;8.634;2023-05-29T08:02:15;10.35;;;5.70;;
21480;SDS011;10902;48.158;8.634;2023-05-29T08:05:02;9.82;;;5.43;;
21480;SDS011;10902;48.158;8.634;2023-05-29T08:07:48;10.15;;;5.13;;
21480;SDS011;10902;48.158;8.634;2023-05-29T08:10:34;11.82;;;5.68;;
21480;SDS011;10902;48.158;8.634;2023-05-29T08:13:19;11.73;;;5.40;;
21480;SDS011;10902;48.158;8.634;2023-05-29T08:16:05;9.68;;;5.10;;
21480;SDS011;10902;48.158;8.634;2023-05-29T08:18:51;8.45;;;5.07;;
21480;SDS011;10902;48.158;8.634;2023-05-29T08:21:36;9.50;;;4.88;;
21480;SDS011;10902;48.158;8.634;2023-05-29T08:24:23;8.75;;;5.03;;
21480;SDS011;10902;48.158;8.634;2023-05-29T08:27:08;8.25;;;4.57;;
21480;SDS011;10902;48.158;8.634;2023-05-29T08:29:54;10.20;;;4.82;;
21480;SDS011;10902;48.158;8.634;2023-05-29T08:32:39;9.32;;;4.72;;
21480;SDS011;10902;48.158;8.634;2023-05-29T08:35:25;8.93;;;4.82;;
21480;SDS011;10902;48.158;8.634;2023-05-29T08:38:10;8.82;;;4.90;;
21480;SDS011;10902;48.158;8.634;2023-05-29T08:40:56;7.95;;;4.72;;
21480;SDS011;10902;48.158;8.634;2023-05-29T08:43:44;8.40;;;4.68;;
21480;SDS011;10902;48.158;8.634;2023-05-29T08:46:32;9.55;;;4.50;;
21480;SDS011;10902;48.158;8.634;2023-05-29T08:49:18;9.40;;;4.80;;
21480;SDS011;10902;48.158;8.634;2023-05-29T08:52:16;9.75;;;4.90;;
21480;SDS011;10902;48.158;8.634;2023-05-29T08:55:04;9.35;;;4.90;;
21480;SDS011;10902;48.158;8.634;2023-05-29T08:57:50;9.48;;;4.47;;
21480;SDS011;10902;48.158;8.634;2023-05-29T09:00:36;10.32;;;4.90;;
21480;SDS011;10902;48.158;8.634;2023-05-29T09:03:22;7.70;;;4.22;;
21480;SDS011;10902;48.158;8.634;2023-05-29T09:06:08;10.80;;;5.05;;
21480;SDS011;10902;48.158;8.634;2023-05-29T09:08:54;10.88;;;4.40;;
21480;SDS011;10902;48.158;8.634;2023-05-29T09:11:41;7.75;;;4.60;;
21480;SDS011;10902;48.158;8.634;2023-05-29T09:17:29;7.53;;;4.65;;
21480;SDS011;10902;48.158;8.634;2023-05-29T09:20:17;8.95;;;4.30;;
21480;SDS011;10902;48.158;8.634;2023-05-29T09:23:04;9.45;;;4.72;;
21480;SDS011;10902;48.158;8.634;2023-05-29T09:25:53;7.25;;;4.22;;
21480;SDS011;10902;48.158;8.634;2023-05-29T09:28:39;8.82;;;4.55;;
21480;SDS011;10902;48.158;8.634;2023-05-29T09:31:25;8.20;;;4.50;;
21480;SDS011;10902;48.158;8.634;2023-05-29T09:34:10;8.18;;;4.43;;
21480;SDS011;10902;48.158;8.634;2023-05-29T09:37:00;9.98;;;5.00;;
21480;SDS011;10902;48.158;8.634;2023-05-29T09:39:53;8.48;;;4.55;;
21480;SDS011;10902;48.158;8.634;2023-05-29T09:42:39;9.88;;;5.15;;
21480;SDS011;10902;48.158;8.634;2023-05-29T09:45:24;9.60;;;5.15;;
21480;SDS011;10902;48.158;8.634;2023-05-29T09:48:32;9.70;;;5.22;;
21480;SDS011;10902;48.158;8.634;2023-05-29T09:51:23;9.63;;;5.03;;
21480;SDS011;10902;48.158;8.634;2023-05-29T09:54:15;9.50;;;5.15;;
21480;SDS011;10902;48.158;8.634;2023-05-29T09:57:01;8.93;;;4.65;;
21480;SDS011;10902;48.158;8.634;2023-05-29T09:59:49;8.18;;;4.72;;
21480;SDS011;10902;48.158;8.634;2023-05-29T10:02:37;9.25;;;4.70;;
21480;SDS011;10902;48.158;8.634;2023-05-29T10:05:25;8.68;;;4.93;;
21480;SDS011;10902;48.158;8.634;2023-05-29T10:08:14;9.60;;;5.32;;
21480;SDS011;10902;48.158;8.634;2023-05-29T10:11:00;8.23;;;4.68;;
21480;SDS011;10902;48.158;8.634;2023-05-29T10:13:47;9.50;;;4.70;;
21480;SDS011;10902;48.158;8.634;2023-05-29T10:16:34;8.10;;;4.82;;
21480;SDS011;10902;48.158;8.634;2023-05-29T10:19:27;7.47;;;5.05;;
21480;SDS011;10902;48.158;8.634;2023-05-29T10:22:16;9.57;;;5.15;;
21480;SDS011;10902;48.158;8.634;2023-05-29T10:25:05;8.00;;;4.80;;
21480;SDS011;10902;48.158;8.634;2023-05-29T10:27:53;7.63;;;4.60;;
21480;SDS011;10902;48.158;8.634;2023-05-29T10:30:45;8.82;;;5.18;;
21480;SDS011;10902;48.158;8.634;2023-05-29T10:36:42;8.65;;;5.28;;
21480;SDS011;10902;48.158;8.634;2023-05-29T10:39:34;9.00;;;5.38;;
21480;SDS011;10902;48.158;8.634;2023-05-29T10:50:58;8.45;;;5.47;;
21480;SDS011;10902;48.158;8.634;2023-05-29T10:53:44;9.38;;;5.15;;
21480;SDS011;10902;48.158;8.634;2023-05-29T10:56:31;6.68;;;4.53;;
21480;SDS011;10902;48.158;8.634;2023-05-29T10:59:17;7.97;;;4.72;;
21480;SDS011;10902;48.158;8.634;2023-05-29T11:02:03;9.15;;;4.63;;
21480;SDS011;10902;48.158;8.634;2023-05-29T11:05:03;8.60;;;4.43;;
21480;SDS011;10902;48.158;8.634;2023-05-29T11:07:50;7.05;;;4.80;;
21480;SDS011;10902;48.158;8.634;2023-05-29T11:13:40;8.07;;;4.18;;
21480;SDS011;10902;48.158;8.634;2023-05-29T11:19:15;8.05;;;4.40;;
21480;SDS011;10902;48.158;8.634;2023-05-29T11:22:06;7.25;;;4.20;;
21480;SDS011;10902;48.158;8.634;2023-05-29T11:24:59;7.28;;;4.00;;
21480;SDS011;10902;48.158;8.634;2023-05-29T11:27:46;6.88;;;3.90;;
21480;SDS011;10902;48.158;8.634;2023-05-29T11:30:32;6.35;;;3.30;;
21480;SDS011;10902;48.158;8.634;2023-05-29T11:33:27;6.78;;;3.53;;
21480;SDS011;10902;48.158;8.634;2023-05-29T11:36:13;6.68;;;3.47;;
21480;SDS011;10902;48.158;8.634;2023-05-29T11:39:00;7.00;;;3.67;;
21480;SDS011;10902;48.158;8.634;2023-05-29T11:41:49;6.65;;;3.67;;
21480;SDS011;10902;48.158;8.634;2023-05-29T11:44:36;8.38;;;3.75;;
21480;SDS011;10902;48.158;8.634;2023-05-29T11:47:22;7.45;;;3.88;;
21480;SDS011;10902;48.158;8.634;2023-05-29T11:50:19;6.55;;;3.45;;
21480;SDS011;10902;48.158;8.634;2023-05-29T11:53:06;8.20;;;4.22;;
21480;SDS011;10902;48.158;8.634;2023-05-29T11:55:53;6.82;;;3.88;;
21480;SDS011;10902;48.158;8.634;2023-05-29T11:58:52;7.03;;;3.58;;
21480;SDS011;10902;48.158;8.634;2023-05-29T12:01:41;6.88;;;3.80;;
21480;SDS011;10902;48.158;8.634;2023-05-29T12:04:27;5.47;;;3.75;;
21480;SDS011;10902;48.158;8.634;2023-05-29T12:07:17;6.70;;;3.92;;
21480;SDS011;10902;48.158;8.634;2023-05-29T12:10:10;7.50;;;3.92;;
21480;SDS011;10902;48.158;8.634;2023-05-29T12:12:58;7.75;;;4.28;;
21480;SDS011;10902;48.158;8.634;2023-05-29T12:15:45;7.50;;;4.07;;
21480;SDS011;10902;48.158;8.634;2023-05-29T12:18:33;8.73;;;4.18;;
21480;SDS011;10902;48.158;8.634;2023-05-29T12:21:20;7.55;;;4.70;;
21480;SDS011;10902;48.158;8.634;2023-05-29T12:24:06;10.77;;;4.10;;
21480;SDS011;10902;48.158;8.634;2023-05-29T12:26:52;7.72;;;4.10;;
21480;SDS011;10902;48.158;8.634;2023-05-29T12:29:38;7.28;;;4.53;;
21480;SDS011;10902;48.158;8.634;2023-05-29T12:32:23;6.93;;;3.90;;
21480;SDS011;10902;48.158;8.634;2023-05-29T12:35:19;6.90;;;4.30;;
21480;SDS011;10902;48.158;8.634;2023-05-29T12:38:09;8.45;;;4.18;;
21480;SDS011;10902;48.158;8.634;2023-05-29T12:40:54;8.55;;;4.40;;
21480;SDS011;10902;48.158;8.634;2023-05-29T12:43:40;7.72;;;4.13;;
21480;SDS011;10902;48.158;8.634;2023-05-29T12:46:26;7.03;;;4.00;;
21480;SDS011;10902;48.158;8.634;2023-05-29T12:52:05;7.28;;;3.95;;
21480;SDS011;10902;48.158;8.634;2023-05-29T12:54:56;7.28;;;4.32;;
21480;SDS011;10902;48.158;8.634;2023-05-29T12:57:42;6.00;;;3.83;;
21480;SDS011;10902;48.158;8.634;2023-05-29T13:00:29;8.57;;;4.28;;
21480;SDS011;10902;48.158;8.634;2023-05-29T13:03:15;7.38;;;4.13;;
21480;SDS011;10902;48.158;8.634;2023-05-29T13:06:01;7.38;;;4.30;;
21480;SDS011;10902;48.158;8.634;2023-05-29T13:08:47;7.13;;;4.10;;
21480;SDS011;10902;48.158;8.634;2023-05-29T13:11:32;9.65;;;4.43;;
21480;SDS011;10902;48.158;8.634;2023-05-29T13:14:18;7.72;;;4.43;;
21480;SDS011;10902;48.158;8.634;2023-05-29T13:17:04;6.60;;;4.07;;
21480;SDS011;10902;48.158;8.634;2023-05-29T13:19:50;7.38;;;4.72;;
21480;SDS011;10902;48.158;8.634;2023-05-29T13:22:36;6.55;;;4.13;;
21480;SDS011;10902;48.158;8.634;2023-05-29T13:25:22;6.45;;;3.80;;
21480;SDS011;10902;48.158;8.634;2023-05-29T13:28:10;6.95;;;3.95;;
21480;SDS011;10902;48.158;8.634;2023-05-29T13:30:56;8.75;;;4.43;;
21480;SDS011;10902;48.158;8.634;2023-05-29T13:33:41;6.75;;;3.60;;
21480;SDS011;10902;48.158;8.634;2023-05-29T13:36:27;7.32;;;4.30;;
21480;SDS011;10902;48.158;8.634;2023-05-29T13:39:12;7.00;;;4.53;;
21480;SDS011;10902;48.158;8.634;2023-05-29T13:41:58;6.93;;;4.05;;
21480;SDS011;10902;48.158;8.634;2023-05-29T13:44:44;7.07;;;3.92;;
21480;SDS011;10902;48.158;8.634;2023-05-29T13:47:30;7.75;;;3.83;;
21480;SDS011;10902;48.158;8.634;2023-05-29T13:50:17;7.80;;;4.30;;
21480;SDS011;10902;48.158;8.634;2023-05-29T13:53:02;6.57;;;3.80;;
21480;SDS011;10902;48.158;8.634;2023-05-29T13:55:48;8.73;;;4.25;;
21480;SDS011;10902;48.158;8.634;2023-05-29T13:58:34;8.20;;;3.58;;
21480;SDS011;10902;48.158;8.634;2023-05-29T14:01:19;8.02;;;3.58;;
21480;SDS011;10902;48.158;8.634;2023-05-29T14:04:05;6.97;;;3.65;;
21480;SDS011;10902;48.158;8.634;2023-05-29T14:06:51;8.73;;;4.07;;
21480;SDS011;10902;48.158;8.634;2023-05-29T14:09:37;7.72;;;4.07;;
21480;SDS011;10902;48.158;8.634;2023-05-29T14:12:23;5.78;;;3.80;;
21480;SDS011;10902;48.158;8.634;2023-05-29T14:15:09;7.15;;;3.55;;
21480;SDS011;10902;48.158;8.634;2023-05-29T14:17:55;8.75;;;4.22;;
21480;SDS011;10902;48.158;8.634;2023-05-29T14:20:40;8.82;;;3.63;;
21480;SDS011;10902;48.158;8.634;2023-05-29T14:23:26;6.07;;;3.63;;
21480;SDS011;10902;48.158;8.634;2023-05-29T14:26:12;6.30;;;3.45;;
21480;SDS011;10902;48.158;8.634;2023-05-29T14:28:57;5.93;;;3.58;;
21480;SDS011;10902;48.158;8.634;2023-05-29T14:31:43;6.90;;;3.75;;
21480;SDS011;10902;48.158;8.634;2023-05-29T14:34:29;7.55;;;3.83;;
21480;SDS011;10902;48.158;8.634;2023-05-29T14:37:14;7.82;;;4.25;;
21480;SDS011;10902;48.158;8.634;2023-05-29T14:40:00;7.18;;;3.92;;
21480;SDS011;10902;48.158;8.634;2023-05-29T14:42:46;8.50;;;3.47;;
21480;SDS011;10902;48.158;8.634;2023-05-29T14:45:32;6.63;;;3.80;;
21480;SDS011;10902;48.158;8.634;2023-05-29T14:48:17;7.32;;;4.03;;
21480;SDS011;10902;48.158;8.634;2023-05-29T14:51:03;12.45;;;4.50;;
21480;SDS011;10902;48.158;8.634;2023-05-29T14:53:48;7.35;;;4.00;;
21480;SDS011;10902;48.158;8.634;2023-05-29T14:56:34;7.75;;;3.97;;
21480;SDS011;10902;48.158;8.634;2023-05-29T14:59:20;6.90;;;3.40;;
21480;SDS011;10902;48.158;8.634;2023-05-29T15:02:05;7.60;;;3.60;;
21480;SDS011;10902;48.158;8.634;2023-05-29T15:04:51;6.68;;;3.72;;
21480;SDS011;10902;48.158;8.634;2023-05-29T15:07:36;7.38;;;3.25;;
21480;SDS011;10902;48.158;8.634;2023-05-29T15:10:23;6.28;;;3.40;;
21480;SDS011;10902;48.158;8.634;2023-05-29T15:13:09;6.45;;;3.53;;
21480;SDS011;10902;48.158;8.634;2023-05-29T15:15:55;5.60;;;3.15;;
21480;SDS011;10902;48.158;8.634;2023-05-29T15:18:44;6.80;;;3.80;;
21480;SDS011;10902;48.158;8.634;2023-05-29T15:21:29;5.97;;;3.35;;
21480;SDS011;10902;48.158;8.634;2023-05-29T15:24:15;5.95;;;3.47;;
21480;SDS011;10902;48.158;8.634;2023-05-29T15:27:01;7.38;;;3.65;;
21480;SDS011;10902;48.158;8.634;2023-05-29T15:29:47;6.78;;;3.35;;
21480;SDS011;10902;48.158;8.634;2023-05-29T15:32:33;8.73;;;4.25;;
21480;SDS011;10902;48.158;8.634;2023-05-29T15:35:18;5.78;;;3.40;;
21480;SDS011;10902;48.158;8.634;2023-05-29T15:38:04;6.97;;;3.70;;
21480;SDS011;10902;48.158;8.634;2023-05-29T15:40:50;5.78;;;3.28;;
21480;SDS011;10902;48.158;8.634;2023-05-29T15:43:35;7.97;;;3.40;;
21480;SDS011;10902;48.158;8.634;2023-05-29T15:46:21;7.88;;;3.08;;
21480;SDS011;10902;48.158;8.634;2023-05-29T15:49:08;5.63;;;3.15;;
21480;SDS011;10902;48.158;8.634;2023-05-29T15:51:54;7.88;;;3.35;;
21480;SDS011;10902;48.158;8.634;2023-05-29T15:54:39;6.38;;;3.78;;
21480;SDS011;10902;48.158;8.634;2023-05-29T15:57:25;6.72;;;3.75;;
21480;SDS011;10902;48.158;8.634;2023-05-29T16:00:11;7.22;;;3.50;;
21480;SDS011;10902;48.158;8.634;2023-05-29T16:02:57;7.53;;;3.67;;
21480;SDS011;10902;48.158;8.634;2023-05-29T16:05:42;5.95;;;3.45;;
21480;SDS011;10902;48.158;8.634;2023-05-29T16:08:28;6.45;;;3.95;;
21480;SDS011;10902;48.158;8.634;2023-05-29T16:11:14;7.15;;;4.05;;
21480;SDS011;10902;48.158;8.634;2023-05-29T16:14:00;7.05;;;3.95;;
21480;SDS011;10902;48.158;8.634;2023-05-29T16:16:45;5.88;;;3.80;;
21480;SDS011;10902;48.158;8.634;2023-05-29T16:19:31;6.13;;;3.67;;
21480;SDS011;10902;48.158;8.634;2023-05-29T16:22:17;9.65;;;3.30;;
21480;SDS011;10902;48.158;8.634;2023-05-29T16:25:03;6.32;;;3.40;;
21480;SDS011;10902;48.158;8.634;2023-05-29T16:27:48;8.68;;;3.70;;
21480;SDS011;10902;48.158;8.634;2023-05-29T16:30:34;6.63;;;3.17;;
21480;SDS011;10902;48.158;8.634;2023-05-29T16:33:20;6.22;;;3.88;;
21480;SDS011;10902;48.158;8.634;2023-05-29T16:36:05;6.90;;;3.58;;
21480;SDS011;10902;48.158;8.634;2023-05-29T16:38:51;7.40;;;3.65;;
21480;SDS011;10902;48.158;8.634;2023-05-29T16:41:37;6.55;;;3.53;;
21480;SDS011;10902;48.158;8.634;2023-05-29T16:44:23;6.38;;;3.55;;
21480;SDS011;10902;48.158;8.634;2023-05-29T16:47:08;8.63;;;3.60;;
21480;SDS011;10902;48.158;8.634;2023-05-29T16:49:54;6.50;;;3.60;;
21480;SDS011;10902;48.158;8.634;2023-05-29T16:52:40;6.40;;;3.40;;
21480;SDS011;10902;48.158;8.634;2023-05-29T16:55:25;5.78;;;3.55;;
21480;SDS011;10902;48.158;8.634;2023-05-29T16:58:12;7.10;;;4.07;;
21480;SDS011;10902;48.158;8.634;2023-05-29T17:00:57;7.88;;;3.72;;
21480;SDS011;10902;48.158;8.634;2023-05-29T17:03:43;5.93;;;3.50;;
21480;SDS011;10902;48.158;8.634;2023-05-29T17:06:29;8.15;;;3.80;;
21480;SDS011;10902;48.158;8.634;2023-05-29T17:09:14;5.50;;;3.30;;
21480;SDS011;10902;48.158;8.634;2023-05-29T17:12:00;8.90;;;4.30;;
21480;SDS011;10902;48.158;8.634;2023-05-29T17:14:46;6.93;;;3.60;;